Time;durP1;ratioP1;P1;durP2;ratioP2;P2;SDS_P1;SDS_P2;PMS_P1;PMS_P2;Temp;Humidity;BMP_temperature;BMP_pressure;BME280_temperature;BME280_humidity;BME280_pressure;Samples;Min_cycle;Max_cycle;Signal;HPM_P1;HPM_P2
2023/10/19 00:02:15;;;;;;;28.30;16.30;;;;;;;0.14;100.00;100446.84;109115;1255;59564;-54
2023/10/19 00:04:43;;;;;;;26.30;15.40;;;;;;;0.20;100.00;100452.86;109195;1254;62320;-54
2023/10/19 00:07:15;;;;;;;27.80;16.20;;;;;;;0.28;100.00;100451.41;109263;1256;75998;-55
2023/10/19 00:09:48;;;;;;;25.60;14.50;;;;;;;0.36;100.00;100449.80;109161;1253;67731;-54
2023/10/19 00:12:16;;;;;;;23.30;14.20;;;;;;;0.44;100.00;100454.34;109172;1253;72728;-54
2023/10/19 00:14:44;;;;;;;26.50;16.00;;;;;;;0.58;100.00;100456.27;109108;1253;59319;-54
2023/10/19 00:17:12;;;;;;;24.50;15.20;;;;;;;0.64;100.00;100456.48;109102;1253;61218;-54
2023/10/19 00:19:57;;;;;;;25.50;14.00;;;;;;;0.63;100.00;100454.80;109131;1259;74762;-55
2023/10/19 00:22:25;;;;;;;20.80;13.40;;;;;;;0.64;100.00;100454.78;109271;1253;69260;-54
2023/10/19 00:24:53;;;;;;;20.70;13.10;;;;;;;0.66;100.00;100459.41;108540;1254;728632;-54
2023/10/19 00:27:23;;;;;;;24.00;13.80;;;;;;;0.67;100.00;100455.77;109121;1253;60876;-54
2023/10/19 00:29:55;;;;;;;22.20;14.20;;;;;;;0.66;100.00;100456.52;109120;1253;59031;-54
2023/10/19 00:32:24;;;;;;;20.60;12.70;;;;;;;0.66;100.00;100455.98;109247;1253;73508;-56
2023/10/19 00:34:53;;;;;;;21.60;13.60;;;;;;;0.69;100.00;100457.96;109264;1254;67065;-54
2023/10/19 00:37:26;;;;;;;26.80;14.20;;;;;;;0.72;100.00;100456.00;109171;1254;72706;-54
2023/10/19 00:39:55;;;;;;;20.70;13.80;;;;;;;0.72;100.00;100457.58;109236;1254;59604;-54
2023/10/19 00:42:30;;;;;;;24.70;13.10;;;;;;;0.71;100.00;100458.15;109143;1253;59474;-54
2023/10/19 00:45:05;;;;;;;20.10;11.60;;;;;;;0.69;100.00;100453.84;109181;1253;73909;-54
2023/10/19 00:47:39;;;;;;;18.60;11.60;;;;;;;0.72;100.00;100460.66;109267;1253;65493;-55
2023/10/19 00:50:15;;;;;;;20.20;12.10;;;;;;;0.77;100.00;100464.40;109137;1253;72258;-54
2023/10/19 00:52:49;;;;;;;22.40;12.60;;;;;;;0.84;100.00;100461.68;109116;1253;59652;-54
2023/10/19 00:55:21;;;;;;;18.70;11.40;;;;;;;0.90;100.00;100462.71;109243;1254;60174;-54
2023/10/19 00:57:49;;;;;;;21.80;12.60;;;;;;;0.99;100.00;100464.45;109018;1253;74656;-55
2023/10/19 01:00:34;;;;;;;17.90;10.30;;;;;;;1.05;100.00;100469.98;109227;1253;64512;-54
2023/10/19 01:03:04;;;;;;;22.30;12.90;;;;;;;1.09;100.00;100474.98;109256;1253;71460;-54
2023/10/19 01:05:35;;;;;;;21.70;12.90;;;;;;;1.10;100.00;100475.05;109240;1253;59565;-54
2023/10/19 01:08:22;;;;;;;19.00;13.10;;;;;;;1.12;100.00;100475.83;109200;1254;58923;-55
2023/10/19 01:10:53;;;;;;;19.50;12.50;;;;;;;1.12;100.00;100475.42;109130;1253;73734;-55
2023/10/19 01:13:26;;;;;;;19.20;12.20;;;;;;;1.14;100.00;100472.51;109116;1258;68002;-54
2023/10/19 01:15:55;;;;;;;18.10;11.90;;;;;;;1.17;100.00;100470.42;109231;1253;71451;-54
2023/10/19 01:18:29;;;;;;;18.30;11.70;;;;;;;1.19;100.00;100461.02;109238;1253;58961;-54
2023/10/19 01:20:57;;;;;;;19.60;12.60;;;;;;;1.22;100.00;100455.50;109336;1253;60117;-54
2023/10/19 01:28:53;;;;;;;18.30;11.60;;;;;;;1.34;100.00;100460.05;109186;1253;71811;-54
2023/10/19 01:34:00;;;;;;;20.60;12.00;;;;;;;1.30;100.00;100460.40;109185;1253;59220;-53
2023/10/19 01:36:32;;;;;;;20.70;12.00;;;;;;;1.24;100.00;100456.08;109094;1253;74645;-55
2023/10/19 01:39:09;;;;;;;23.30;13.30;;;;;;;1.16;100.00;100455.58;109179;1253;67363;-54
2023/10/19 01:41:38;;;;;;;20.70;12.20;;;;;;;1.09;100.00;100448.63;109270;1253;71363;-54
2023/10/19 01:44:06;;;;;;;19.30;12.80;;;;;;;1.01;100.00;100443.40;109043;1255;59678;-54
2023/10/19 01:46:35;;;;;;;19.00;11.80;;;;;;;0.93;100.00;100448.16;109216;1253;59106;-54
2023/10/19 01:49:04;;;;;;;18.60;11.70;;;;;;;0.83;100.00;100451.80;109160;1254;74725;-54
2023/10/19 01:51:33;;;;;;;28.80;17.30;;;;;;;0.73;100.00;100463.49;109161;1253;67160;-54
2023/10/19 01:54:03;;;;;;;26.70;16.80;;;;;;;0.62;100.00;100467.71;109125;1253;72709;-54
2023/10/19 01:56:33;;;;;;;25.50;13.60;;;;;;;0.52;100.00;100466.95;109161;1253;59713;-54
2023/10/19 01:59:01;;;;;;;24.40;12.60;;;;;;;0.43;100.00;100470.20;109205;1253;60116;-54
2023/10/19 02:01:29;;;;;;;22.30;13.70;;;;;;;0.36;100.00;100469.02;109156;1253;74592;-54
2023/10/19 02:04:05;;;;;;;20.20;12.60;;;;;;;0.35;100.00;100470.42;109189;1253;66949;-54
2023/10/19 02:09:26;;;;;;;20.30;12.70;;;;;;;0.49;100.00;100470.71;109091;1256;59345;-54
2023/10/19 02:11:58;;;;;;;19.40;11.60;;;;;;;0.63;100.00;100464.79;109138;1254;60040;-54
2023/10/19 02:14:30;;;;;;;20.60;11.90;;;;;;;0.75;100.00;100465.06;109217;1253;73488;-54
2023/10/19 02:16:59;;;;;;;18.60;13.00;;;;;;;0.87;100.00;100463.15;109139;1253;67091;-54
2023/10/19 02:19:27;;;;;;;16.20;10.00;;;;;;;1.00;100.00;100463.73;109361;1253;72672;-54
2023/10/19 02:21:58;;;;;;;19.20;11.50;;;;;;;1.12;100.00;100460.67;109344;1253;59329;-54
2023/10/19 02:24:26;;;;;;;17.50;11.40;;;;;;;1.23;100.00;100463.84;109286;1253;59115;-54
2023/10/19 02:26:55;;;;;;;20.80;11.90;;;;;;;1.30;100.00;100457.66;109121;1253;75162;-56
2023/10/19 02:29:23;;;;;;;20.40;12.60;;;;;;;1.35;100.00;100457.09;109347;1253;66965;-54
2023/10/19 02:31:51;;;;;;;20.60;13.00;;;;;;;1.38;100.00;100460.59;109187;1253;72851;-54
2023/10/19 02:34:18;;;;;;;18.70;11.70;;;;;;;1.42;100.00;100461.87;109111;1253;58939;-54
2023/10/19 02:36:49;;;;;;;20.10;12.30;;;;;;;1.43;100.00;100465.53;109328;1253;60163;-55
2023/10/19 02:39:20;;;;;;;18.10;12.60;;;;;;;1.45;100.00;100463.80;109198;1253;73434;-54
2023/10/19 02:41:48;;;;;;;16.00;11.70;;;;;;;1.48;100.00;100465.84;109294;1253;66912;-54
2023/10/19 02:46:45;;;;;;;20.70;12.70;;;;;;;1.54;100.00;100463.45;109392;1253;60927;-56
2023/10/19 02:49:15;;;;;;;20.10;12.10;;;;;;;1.59;100.00;100466.81;109371;1256;60124;-54
2023/10/19 02:51:45;;;;;;;19.60;12.40;;;;;;;1.65;100.00;100465.34;109454;1252;75187;-54
2023/10/19 02:54:19;;;;;;;19.70;11.80;;;;;;;1.68;100.00;100463.90;109428;1254;66093;-54
2023/10/19 02:56:49;;;;;;;18.80;11.30;;;;;;;1.73;100.00;100467.15;109098;1254;71421;-56
2023/10/19 02:59:22;;;;;;;20.20;11.40;;;;;;;1.77;100.00;100466.80;109368;1254;60860;-53
2023/10/19 03:02:00;;;;;;;18.50;12.10;;;;;;;1.82;100.00;100462.80;109419;1253;60125;-54
2023/10/19 03:04:29;;;;;;;17.00;9.90;;;;;;;1.87;100.00;100455.91;109197;1253;74740;-55
2023/10/19 03:06:58;;;;;;;13.80;10.20;;;;;;;1.92;100.00;100457.88;109442;1253;65649;-54
2023/10/19 03:11:55;;;;;;;18.70;11.50;;;;;;;2.01;100.00;100465.44;109289;1253;60960;-53
2023/10/19 03:14:25;;;;;;;18.00;11.90;;;;;;;2.03;100.00;100469.21;109260;1252;59213;-56
2023/10/19 03:16:57;;;;;;;16.00;11.40;;;;;;;2.07;100.00;100475.93;109300;1253;74874;-54
2023/10/19 03:19:25;;;;;;;15.10;10.20;;;;;;;2.13;100.00;100479.20;109436;1253;67143;-54
2023/10/19 03:21:55;;;;;;;15.20;10.10;;;;;;;2.20;100.00;100472.79;109411;1253;71412;-55
2023/10/19 03:24:23;;;;;;;17.10;11.90;;;;;;;2.29;100.00;100470.71;109090;1254;59885;-54
2023/10/19 03:26:59;;;;;;;22.00;12.60;;;;;;;2.35;100.00;100474.68;109414;1254;58931;-55
2023/10/19 03:29:31;;;;;;;17.10;10.80;;;;;;;2.42;100.00;100480.42;109400;1253;74679;-54
2023/10/19 03:31:59;;;;;;;18.60;10.90;;;;;;;2.50;100.00;100480.61;109282;1254;65498;-55
2023/10/19 03:34:26;;;;;;;17.10;11.60;;;;;;;2.57;100.00;100481.84;109326;1254;72544;-54
2023/10/19 03:36:54;;;;;;;18.00;10.90;;;;;;;2.61;100.00;100482.51;109306;1254;59422;-54
2023/10/19 03:39:22;;;;;;;16.90;11.40;;;;;;;2.65;100.00;100485.37;109459;1253;59119;-54
2023/10/19 03:41:52;;;;;;;18.50;11.80;;;;;;;2.68;100.00;100486.02;109257;1253;73439;-56
2023/10/19 03:44:24;;;;;;;17.30;10.90;;;;;;;2.73;100.00;100489.10;109162;1254;65743;-54
2023/10/19 03:47:01;;;;;;;17.20;10.30;;;;;;;2.76;100.00;100488.63;109172;1254;72761;-54
2023/10/19 03:49:36;;;;;;;16.60;11.00;;;;;;;2.79;100.00;100482.20;109288;1253;59179;-56
2023/10/19 03:54:44;;;;;;;18.20;10.90;;;;;;;2.86;100.00;100473.73;109309;1253;74738;-53
2023/10/19 03:57:19;;;;;;;19.30;12.20;;;;;;;2.90;100.00;100474.96;109238;1258;65629;-54
2023/10/19 03:59:49;;;;;;;16.70;11.70;;;;;;;2.93;100.00;100482.63;109288;1253;71410;-53
2023/10/19 04:02:20;;;;;;;14.80;10.50;;;;;;;2.95;100.00;100484.13;109322;1252;60014;-53
2023/10/19 04:04:49;;;;;;;18.20;11.30;;;;;;;2.99;100.00;100490.86;109310;1253;59343;-53
2023/10/19 04:07:25;;;;;;;18.00;11.70;;;;;;;3.03;100.00;100499.64;109232;1254;74803;-54
2023/10/19 04:12:38;;;;;;;18.50;10.30;;;;;;;3.10;100.00;100506.54;109325;1254;72625;-54
2023/10/19 04:15:12;;;;;;;18.40;10.70;;;;;;;3.13;100.00;100507.88;109243;1253;61506;-54
2023/10/19 04:17:42;;;;;;;16.00;10.70;;;;;;;3.16;100.00;100504.17;109374;1252;58961;-54
2023/10/19 04:22:49;;;;;;;18.20;11.70;;;;;;;3.23;100.00;100496.21;109314;1254;66213;-54
2023/10/19 04:25:36;;;;;;;18.80;12.00;;;;;;;3.28;100.00;100491.53;109430;1253;73607;-55
2023/10/19 04:28:04;;;;;;;17.10;11.80;;;;;;;3.32;100.00;100485.52;109348;1254;59621;-55
2023/10/19 04:30:33;;;;;;;16.60;11.10;;;;;;;3.37;100.00;100477.55;109367;1254;60101;-58
2023/10/19 04:33:01;;;;;;;17.90;11.20;;;;;;;3.41;100.00;100479.73;109295;1255;74778;-56
2023/10/19 04:35:34;;;;;;;18.60;10.90;;;;;;;3.44;100.00;100482.06;109425;1254;66954;-57
2023/10/19 04:38:06;;;;;;;16.30;11.00;;;;;;;3.46;100.00;100479.02;109405;1253;72728;-57
2023/10/19 04:40:33;;;;;;;15.90;10.10;;;;;;;3.47;100.00;100470.68;109221;1253;59395;-58
2023/10/19 04:43:03;;;;;;;14.90;11.00;;;;;;;3.46;100.00;100463.90;109341;1253;58938;-57
2023/10/19 04:45:30;;;;;;;14.80;10.30;;;;;;;3.43;100.00;100463.08;109401;1254;73521;-56
2023/10/19 04:47:58;;;;;;;14.30;9.80;;;;;;;3.40;100.00;100458.98;109372;1253;65644;-56
2023/10/19 04:50:26;;;;;;;15.00;9.30;;;;;;;3.39;100.00;100461.48;109355;1253;72912;-56
2023/10/19 04:52:54;;;;;;;14.00;9.10;;;;;;;3.38;100.00;100466.91;109304;1253;59711;-56
2023/10/19 04:55:21;;;;;;;14.20;9.50;;;;;;;3.36;100.00;100466.73;109272;1253;59146;-56
2023/10/19 04:57:49;;;;;;;12.90;9.10;;;;;;;3.33;100.00;100459.30;109361;1254;73668;-56
2023/10/19 05:00:20;;;;;;;14.50;9.20;;;;;;;3.30;100.00;100455.08;109294;1254;66944;-55
2023/10/19 05:02:47;;;;;;;15.80;10.50;;;;;;;3.32;100.00;100459.77;109331;1253;71445;-54
2023/10/19 05:05:17;;;;;;;14.90;10.40;;;;;;;3.34;100.00;100460.75;109367;1253;59351;-54
2023/10/19 05:07:44;;;;;;;15.30;9.10;;;;;;;3.40;100.00;100470.90;109372;1253;59287;-54
2023/10/19 05:10:12;;;;;;;12.60;8.70;;;;;;;3.49;100.00;100481.11;109304;1253;73668;-56
2023/10/19 05:12:40;;;;;;;13.10;7.40;;;;;;;3.62;100.00;100479.33;109374;1253;66099;-56
2023/10/19 05:15:08;;;;;;;15.50;8.60;;;;;;;3.86;100.00;100476.85;109339;1253;72756;-54
2023/10/19 05:17:35;;;;;;;13.70;8.80;;;;;;;4.21;100.00;100478.61;109178;1254;58965;-53
2023/10/19 05:20:05;;;;;;;10.30;7.20;;;;;;;4.55;100.00;100483.85;109300;1253;58970;-56
2023/10/19 05:22:33;;;;;;;11.30;7.90;;;;;;;4.85;100.00;100483.69;109340;1254;74055;-55
2023/10/19 05:25:01;;;;;;;13.00;7.10;;;;;;;5.10;100.00;100479.95;109284;1252;66924;-56
2023/10/19 05:27:28;;;;;;;11.60;7.50;;;;;;;5.27;100.00;100483.73;109340;1254;72414;-56
2023/10/19 05:29:56;;;;;;;9.50;6.10;;;;;;;5.41;100.00;100480.95;109344;1254;60481;-55
2023/10/19 05:32:24;;;;;;;13.10;7.40;;;;;;;5.50;100.00;100476.81;109372;1253;60528;-58
2023/10/19 05:34:52;;;;;;;11.10;7.30;;;;;;;5.51;100.00;100478.38;109409;1253;74666;-56
2023/10/19 05:37:20;;;;;;;10.50;6.50;;;;;;;5.50;100.00;100478.82;109405;1253;67026;-55
2023/10/19 05:39:49;;;;;;;11.20;7.90;;;;;;;5.47;100.00;100479.11;109287;1254;72395;-56
2023/10/19 05:42:16;;;;;;;11.00;7.70;;;;;;;5.43;100.00;100479.01;109266;1254;60165;-55
2023/10/19 05:44:44;;;;;;;13.10;7.90;;;;;;;5.44;100.00;100472.54;109331;1253;58996;-56
2023/10/19 05:47:11;;;;;;;12.30;7.30;;;;;;;5.48;100.00;100473.05;109236;1254;74773;-55
2023/10/19 05:49:39;;;;;;;11.10;8.10;;;;;;;5.52;100.00;100472.98;109389;1253;67358;-55
2023/10/19 05:52:07;;;;;;;9.60;7.30;;;;;;;5.54;100.00;100470.50;109512;1252;70354;-55
2023/10/19 05:54:34;;;;;;;13.50;8.60;;;;;;;5.55;100.00;100469.89;109358;1252;60901;-56
2023/10/19 05:57:02;;;;;;;11.30;7.90;;;;;;;5.57;100.00;100468.23;109284;1252;60624;-55
2023/10/19 05:59:33;;;;;;;11.40;7.30;;;;;;;5.58;100.00;100470.61;109463;1254;73320;-55
2023/10/19 06:02:00;;;;;;;11.20;7.60;;;;;;;5.63;100.00;100470.42;109463;1253;65763;-56
2023/10/19 06:04:28;;;;;;;12.00;7.90;;;;;;;5.69;100.00;100470.88;109419;1252;72369;-56
2023/10/19 06:06:56;;;;;;;12.50;8.00;;;;;;;5.81;100.00;100467.12;109417;1252;60073;-55
2023/10/19 06:09:29;;;;;;;13.40;8.20;;;;;;;5.99;100.00;100471.05;109458;1254;60103;-55
2023/10/19 06:11:57;;;;;;;9.90;7.00;;;;;;;6.21;100.00;100468.80;109432;1253;74722;-55
2023/10/19 06:14:24;;;;;;;12.60;7.90;;;;;;;6.42;100.00;100467.15;109427;1253;66884;-56
2023/10/19 06:16:52;;;;;;;11.50;7.70;;;;;;;6.54;100.00;100457.77;109394;1252;73287;-55
2023/10/19 06:19:20;;;;;;;11.30;6.90;;;;;;;6.63;100.00;100456.04;109393;1254;62285;-55
2023/10/19 06:21:50;;;;;;;11.20;7.20;;;;;;;6.74;100.00;100449.91;109421;1252;60070;-54
2023/10/19 06:24:18;;;;;;;11.40;7.50;;;;;;;6.92;100.00;100447.45;109326;1252;77825;-54
2023/10/19 06:26:46;;;;;;;11.40;7.10;;;;;;;7.11;100.00;100447.23;109418;1254;69205;-53
2023/10/19 06:29:14;;;;;;;8.80;6.70;;;;;;;7.24;100.00;100438.77;109413;1254;73713;-54
2023/10/19 06:31:43;;;;;;;10.90;6.90;;;;;;;7.31;100.00;100433.98;109409;1253;59377;-54
2023/10/19 06:34:11;;;;;;;13.10;7.40;;;;;;;7.35;100.00;100430.77;109336;1253;59457;-53
2023/10/19 06:36:38;;;;;;;10.60;7.40;;;;;;;7.42;100.00;100428.20;109288;1253;73505;-55
2023/10/19 06:39:06;;;;;;;12.90;6.30;;;;;;;7.54;100.00;100427.73;109283;1252;67804;-54
2023/10/19 06:41:34;;;;;;;9.90;7.10;;;;;;;7.66;100.00;100418.27;109427;1253;72650;-54
2023/10/19 06:44:02;;;;;;;12.10;8.60;;;;;;;7.71;100.00;100414.81;109389;1253;58985;-54
2023/10/19 06:46:31;;;;;;;10.10;7.00;;;;;;;7.78;100.00;100411.08;109283;1254;62260;-55
2023/10/19 06:49:00;;;;;;;9.90;6.30;;;;;;;7.89;100.00;100409.98;109327;1253;74647;-54
2023/10/19 06:51:29;;;;;;;9.40;6.50;;;;;;;7.97;100.00;100408.42;109439;1252;67018;-54
2023/10/19 06:53:57;;;;;;;10.40;6.90;;;;;;;8.02;100.00;100406.59;109318;1253;72754;-54
2023/10/19 06:56:26;;;;;;;10.30;6.60;;;;;;;8.07;100.00;100409.63;109291;1252;60080;-54
2023/10/19 06:58:53;;;;;;;11.00;6.30;;;;;;;8.14;100.00;100410.29;109340;1253;60093;-52
2023/10/19 07:01:25;;;;;;;11.90;7.80;;;;;;;8.27;100.00;100409.17;109391;1253;74619;-52
2023/10/19 07:03:53;;;;;;;10.40;8.10;;;;;;;8.56;100.00;100404.38;109405;1252;65288;-52
2023/10/19 07:06:21;;;;;;;10.20;8.00;;;;;;;9.01;100.00;100404.96;109396;1252;72728;-53
2023/10/19 07:08:49;;;;;;;10.30;8.00;;;;;;;9.42;100.00;100398.03;109325;1253;59012;-53
2023/10/19 07:11:16;;;;;;;10.20;8.00;;;;;;;9.64;100.00;100393.11;109314;1253;60901;-52
2023/10/19 07:13:44;;;;;;;9.60;7.60;;;;;;;9.74;100.00;100387.45;109423;1252;74692;-53
2023/10/19 07:16:12;;;;;;;8.60;6.40;;;;;;;10.03;100.00;100383.47;109304;1253;65962;-53
2023/10/19 07:18:40;;;;;;;9.30;5.70;;;;;;;10.60;100.00;100381.93;109383;1253;71421;-53
2023/10/19 07:21:09;;;;;;;8.50;5.50;;;;;;;11.17;100.00;100369.73;109326;1253;61453;-53
2023/10/19 07:23:38;;;;;;;7.10;5.10;;;;;;;11.62;100.00;100361.50;109382;1253;60095;-53
2023/10/19 07:26:06;;;;;;;6.90;5.00;;;;;;;12.17;100.00;100348.71;109373;1252;74712;-53
2023/10/19 07:28:34;;;;;;;9.80;5.30;;;;;;;12.74;100.00;100334.53;109399;1252;65813;-53
2023/10/19 07:31:12;;;;;;;6.70;4.30;;;;;;;13.36;100.00;100332.80;109343;1252;72769;-53
2023/10/19 07:33:45;;;;;;;8.40;4.00;;;;;;;13.95;100.00;100321.63;109280;1253;60165;-53
2023/10/19 07:36:14;;;;;;;5.90;3.70;;;;;;;14.45;100.00;100306.36;109331;1252;60051;-53
2023/10/19 07:38:46;;;;;;;7.10;4.00;;;;;;;14.82;100.00;100298.20;109367;1253;74728;-55
2023/10/19 07:41:14;;;;;;;6.20;4.30;;;;;;;14.99;100.00;100298.98;109287;1252;66932;-53
2023/10/19 07:43:43;;;;;;;6.20;3.80;;;;;;;14.96;100.00;100297.08;109320;1253;72801;-53
2023/10/19 07:46:11;;;;;;;5.70;3.90;;;;;;;14.78;100.00;100291.76;109297;1252;59013;-53
2023/10/19 07:48:39;;;;;;;5.70;3.40;;;;;;;14.48;100.00;100298.92;109351;1253;61620;-54
2023/10/19 07:51:10;;;;;;;6.50;4.10;;;;;;;14.32;100.00;100297.75;109371;1252;73467;-53
2023/10/19 07:53:38;;;;;;;5.30;3.90;;;;;;;14.51;100.00;100292.79;109422;1252;66316;-55
2023/10/19 07:56:05;;;;;;;5.70;4.10;;;;;;;14.93;100.00;100289.95;109387;1252;71509;-55
2023/10/19 07:58:33;;;;;;;5.80;3.50;;;;;;;15.25;100.00;100286.64;109365;1252;58995;-55
2023/10/19 08:01:01;;;;;;;7.20;3.40;;;;;;;15.38;100.00;100286.55;109403;1253;60139;-53
2023/10/19 08:03:29;;;;;;;4.50;3.20;;;;;;;15.44;100.00;100288.84;109321;1253;73427;-53
2023/10/19 08:05:57;;;;;;;5.50;3.90;;;;;;;15.50;100.00;100289.16;109469;1252;66100;-54
2023/10/19 08:08:25;;;;;;;5.30;3.50;;;;;;;15.61;100.00;100291.98;109297;1253;72726;-55
2023/10/19 08:10:53;;;;;;;6.10;3.40;;;;;;;15.73;100.00;100289.44;109457;1253;59495;-54
2023/10/19 08:13:20;;;;;;;5.30;3.60;;;;;;;15.85;100.00;100290.01;109398;1252;60201;-54
2023/10/19 08:15:48;;;;;;;5.40;3.90;;;;;;;15.97;100.00;100287.43;109418;1251;77523;-54
2023/10/19 08:18:16;;;;;;;5.60;3.60;;;;;;;16.05;100.00;100293.45;109447;1252;65757;-54
2023/10/19 08:20:49;;;;;;;6.20;3.80;;;;;;;15.96;100.00;100295.18;109273;1253;73266;-54
2023/10/19 08:23:23;;;;;;;5.90;4.00;;;;;;;15.67;100.00;100301.49;109371;1252;60129;-54
2023/10/19 08:25:50;;;;;;;4.90;3.30;;;;;;;15.45;100.00;100305.34;109319;1252;60119;-54
2023/10/19 08:28:24;;;;;;;8.50;4.90;;;;;;;15.37;100.00;100303.08;109333;1252;74689;-54
2023/10/19 08:31:00;;;;;;;6.00;3.60;;;;;;;15.38;100.00;100303.36;109428;1252;68930;-54
2023/10/19 08:33:29;;;;;;;6.20;3.20;;;;;;;15.44;100.00;100302.77;109326;1253;75260;-54
2023/10/19 08:35:57;;;;;;;4.80;3.00;;;;;;;15.57;100.00;100302.36;109353;1252;62472;-56
2023/10/19 08:38:26;;;;;;;5.70;3.30;;;;;;;15.81;100.00;100296.36;109397;1252;61483;-54
2023/10/19 08:40:54;;;;;;;6.30;4.00;;;;;;;16.21;100.00;100290.23;109367;1253;75694;-53
2023/10/19 08:43:24;;;;;;;8.40;4.50;;;;;;;16.50;100.00;100287.17;109374;1252;68029;-53
2023/10/19 08:45:53;;;;;;;12.40;8.10;;;;;;;16.76;100.00;100281.08;109259;1253;75659;-55
2023/10/19 08:48:20;;;;;;;5.90;3.60;;;;;;;17.01;100.00;100278.11;109223;1252;61437;-54
2023/10/19 08:50:49;;;;;;;5.60;3.60;;;;;;;17.18;100.00;100273.17;109379;1252;61533;-53
2023/10/19 08:53:19;;;;;;;5.80;4.00;;;;;;;17.37;100.00;100271.58;109322;1252;74745;-54
2023/10/19 08:55:49;;;;;;;5.20;3.80;;;;;;;17.64;100.00;100270.38;109242;1253;66505;-56
2023/10/19 08:58:19;;;;;;;8.60;4.80;;;;;;;17.80;95.37;100269.16;109398;1253;74837;-54
2023/10/19 09:00:48;;;;;;;5.80;3.80;;;;;;;17.72;83.88;100271.09;109348;1253;61301;-53
2023/10/19 09:03:17;;;;;;;6.00;4.20;;;;;;;17.51;81.56;100276.18;109337;1253;62378;-54
2023/10/19 09:05:46;;;;;;;6.40;4.00;;;;;;;17.32;85.89;100269.40;109328;1252;73452;-53
2023/10/19 09:08:18;;;;;;;6.90;3.90;;;;;;;17.21;86.73;100270.77;109322;1251;66778;-53
2023/10/19 09:10:48;;;;;;;6.10;3.80;;;;;;;17.18;90.24;100269.33;109370;1252;71486;-53
2023/10/19 09:13:18;;;;;;;7.00;3.80;;;;;;;17.24;89.31;100262.73;109201;1252;60137;-53
2023/10/19 09:15:48;;;;;;;6.50;4.30;;;;;;;17.26;84.86;100262.35;109384;1252;60504;-54
2023/10/19 09:18:19;;;;;;;6.70;4.00;;;;;;;17.26;85.24;100258.35;109381;1252;78209;-54
2023/10/19 09:20:55;;;;;;;7.00;3.70;;;;;;;17.34;84.73;100261.95;109361;1252;68905;-53
2023/10/19 09:23:23;;;;;;;7.80;3.60;;;;;;;17.33;83.40;100260.62;109317;1252;71453;-54
2023/10/19 09:25:54;;;;;;;5.70;3.70;;;;;;;17.31;86.18;100257.61;109350;1253;60141;-53
2023/10/19 09:28:24;;;;;;;8.40;5.80;;;;;;;17.40;88.39;100255.52;109348;1252;60134;-53
2023/10/19 09:30:53;;;;;;;5.60;4.20;;;;;;;17.59;79.68;100253.59;109317;1253;73718;-56
2023/10/19 09:33:22;;;;;;;5.00;3.70;;;;;;;17.73;76.79;100251.43;109373;1253;66358;-55
2023/10/19 09:35:53;;;;;;;6.80;3.90;;;;;;;17.93;77.14;100247.83;109341;1252;72688;-56
2023/10/19 09:38:27;;;;;;;6.50;3.60;;;;;;;18.13;71.86;100246.23;109345;1253;60732;-55
2023/10/19 09:40:55;;;;;;;7.60;4.20;;;;;;;18.16;67.89;100237.02;109307;1252;60215;-57
2023/10/19 09:43:43;;;;;;;7.70;3.70;;;;;;;18.14;63.64;100239.25;109306;1253;77045;-55
2023/10/19 09:46:12;;;;;;;6.60;4.10;;;;;;;18.13;64.77;100231.85;109383;1252;69284;-55
2023/10/19 09:48:45;;;;;;;7.50;4.20;;;;;;;18.24;63.79;100238.82;109266;1253;73273;-56
2023/10/19 09:51:13;;;;;;;6.90;4.10;;;;;;;18.38;63.77;100232.73;109337;1252;62509;-54
2023/10/19 09:53:50;;;;;;;5.60;3.70;;;;;;;18.55;63.11;100230.79;109285;1252;61579;-54
2023/10/19 09:56:21;;;;;;;6.80;4.10;;;;;;;18.76;61.41;100229.59;109258;1252;76549;-55
2023/10/19 09:58:51;;;;;;;5.80;4.00;;;;;;;18.80;58.02;100230.21;109394;1252;69310;-54
2023/10/19 10:01:21;;;;;;;5.80;3.80;;;;;;;18.68;55.36;100225.17;109236;1253;75666;-54
2023/10/19 10:03:53;;;;;;;6.00;3.90;;;;;;;18.56;53.18;100223.98;109348;1252;62201;-54
2023/10/19 10:06:27;;;;;;;;;;;;;;;18.46;54.19;100228.61;109377;1252;61660;-54
2023/10/19 10:08:55;;;;;;;6.90;3.80;;;;;;;18.40;54.97;100227.04;109321;1253;75803;-54
2023/10/19 10:11:27;;;;;;;6.00;3.70;;;;;;;18.31;56.01;100226.38;109345;1252;67760;-54
2023/10/19 10:13:56;;;;;;;5.80;3.50;;;;;;;18.25;57.11;100224.14;109254;1253;74079;-54
2023/10/19 10:16:28;;;;;;;5.70;3.60;;;;;;;18.31;53.08;100215.45;109310;1253;61253;-54
2023/10/19 10:19:01;;;;;;;7.40;4.00;;;;;;;18.32;50.64;100219.13;109385;1252;62820;-54
2023/10/19 10:21:29;;;;;;;5.60;3.20;;;;;;;18.27;49.42;100208.64;109219;1253;74759;-56
2023/10/19 10:24:00;;;;;;;6.00;4.00;;;;;;;18.06;47.20;100220.66;109204;1253;70311;-54
2023/10/19 10:26:38;;;;;;;6.10;3.10;;;;;;;17.73;48.14;100220.12;109320;1252;75270;-53
2023/10/19 10:29:14;;;;;;;5.90;3.70;;;;;;;17.53;50.75;100214.52;109291;1252;61972;-56
2023/10/19 10:31:46;;;;;;;6.60;4.10;;;;;;;17.38;53.83;100212.42;109252;1252;61113;-54
2023/10/19 10:34:37;;;;;;;7.10;4.20;;;;;;;17.25;54.43;100216.40;109315;1252;75893;-56
2023/10/19 10:37:09;;;;;;;5.40;3.50;;;;;;;17.10;57.00;100216.40;109305;1252;69333;-55
2023/10/19 10:39:38;;;;;;;5.50;3.60;;;;;;;17.06;59.57;100214.61;109320;1252;75448;-55
2023/10/19 10:42:09;;;;;;;7.10;4.00;;;;;;;17.10;61.85;100210.96;109184;1253;61320;-55
2023/10/19 10:44:47;;;;;;;6.40;3.70;;;;;;;17.21;62.78;100213.60;109308;1252;61063;-56
2023/10/19 10:47:24;;;;;;;6.40;4.20;;;;;;;17.24;60.99;100214.26;109357;1253;76292;-57
2023/10/19 10:49:53;;;;;;;6.40;4.00;;;;;;;17.16;61.30;100213.27;109369;1252;68268;-56
2023/10/19 10:52:34;;;;;;;5.60;3.70;;;;;;;17.06;62.68;100211.40;109262;1253;74597;-56
2023/10/19 10:55:12;;;;;;;6.20;4.90;;;;;;;17.10;67.02;100209.77;109229;1254;61658;-55
2023/10/19 10:57:41;;;;;;;9.40;6.10;;;;;;;17.33;67.85;100205.61;109238;1253;61176;-55
2023/10/19 11:00:17;;;;;;;6.70;3.60;;;;;;;17.58;66.03;100206.55;109184;1253;77099;-55
2023/10/19 11:02:46;;;;;;;7.00;4.70;;;;;;;17.75;64.22;100202.29;109226;1253;69996;-55
2023/10/19 11:05:15;;;;;;;5.90;3.60;;;;;;;17.74;62.58;100206.27;109288;1253;74893;-54
2023/10/19 11:08:15;;;;;;;10.10;5.80;;;;;;;17.65;64.25;100200.80;109229;1253;60526;-55
2023/10/19 11:10:46;;;;;;;7.80;4.90;;;;;;;17.64;64.30;100194.33;109329;1252;59032;-56
2023/10/19 11:13:18;;;;;;;8.70;5.20;;;;;;;17.64;63.94;100190.11;109379;1252;74712;-56
2023/10/19 11:15:53;;;;;;;5.70;4.30;;;;;;;17.60;61.31;100192.77;109290;1252;68985;-56
2023/10/19 11:18:45;;;;;;;9.60;5.30;;;;;;;17.43;62.52;100189.28;109377;1252;74810;-56
2023/10/19 11:21:14;;;;;;;6.00;4.20;;;;;;;17.35;64.88;100188.73;109312;1251;61140;-53
2023/10/19 11:23:49;;;;;;;7.40;3.50;;;;;;;17.38;66.12;100190.86;109330;1252;58912;-56
2023/10/19 11:26:22;;;;;;;7.20;4.40;;;;;;;17.44;66.27;100188.24;109366;1252;74659;-56
2023/10/19 11:29:04;;;;;;;6.90;4.20;;;;;;;17.52;66.74;100183.11;109442;1252;66089;-57
2023/10/19 11:31:37;;;;;;;6.90;4.50;;;;;;;17.56;63.87;100182.71;109317;1252;71437;-55
2023/10/19 11:34:07;;;;;;;6.30;3.90;;;;;;;17.43;62.28;100185.25;109346;1252;60819;-56
2023/10/19 11:36:34;;;;;;;6.20;3.80;;;;;;;17.30;64.98;100182.03;109418;1252;59024;-56
2023/10/19 11:39:04;;;;;;;6.00;3.70;;;;;;;17.25;67.39;100179.14;109373;1252;75236;-57
2023/10/19 11:41:32;;;;;;;7.80;3.90;;;;;;;17.21;67.31;100179.46;109436;1252;67047;-54
2023/10/19 11:44:00;;;;;;;6.30;3.50;;;;;;;17.09;67.82;100180.77;109262;1252;71448;-56
2023/10/19 11:46:29;;;;;;;5.50;3.70;;;;;;;16.92;68.78;100183.46;109358;1252;59020;-56
2023/10/19 11:48:57;;;;;;;7.40;3.70;;;;;;;16.72;68.61;100179.96;109374;1252;60114;-57